sensor_id;sensor_type;location;lat;lon;timestamp;P1;durP1;ratioP1;P2;durP2;ratioP2
5349;SDS011;2697;42.144;24.794;2022-12-10T00:01:46;47.13;;;17.13;;
5349;SDS011;2697;42.144;24.794;2022-12-10T00:04:12;53.10;;;19.37;;
5349;SDS011;2697;42.144;24.794;2022-12-10T00:06:38;47.83;;;18.03;;
5349;SDS011;2697;42.144;24.794;2022-12-10T00:09:06;52.40;;;17.40;;
5349;SDS011;2697;42.144;24.794;2022-12-10T00:11:36;49.53;;;16.23;;
5349;SDS011;2697;42.144;24.794;2022-12-10T00:14:02;53.63;;;17.73;;
5349;SDS011;2697;42.144;24.794;2022-12-10T00:16:28;43.63;;;17.00;;
5349;SDS011;2697;42.144;24.794;2022-12-10T00:18:54;48.57;;;16.60;;
5349;SDS011;2697;42.144;24.794;2022-12-10T00:21:20;45.87;;;16.60;;
5349;SDS011;2697;42.144;24.794;2022-12-10T00:23:54;50.47;;;17.20;;
5349;SDS011;2697;42.144;24.794;2022-12-10T00:26:21;54.43;;;16.30;;
5349;SDS011;2697;42.144;24.794;2022-12-10T00:28:48;61.77;;;20.20;;
5349;SDS011;2697;42.144;24.794;2022-12-10T00:31:15;59.77;;;18.90;;
5349;SDS011;2697;42.144;24.794;2022-12-10T00:33:58;52.23;;;18.20;;
5349;SDS011;2697;42.144;24.794;2022-12-10T00:36:35;60.30;;;18.20;;
5349;SDS011;2697;42.144;24.794;2022-12-10T00:39:04;53.33;;;18.37;;
5349;SDS011;2697;42.144;24.794;2022-12-10T00:41:30;43.83;;;17.00;;
5349;SDS011;2697;42.144;24.794;2022-12-10T00:43:56;61.00;;;19.60;;
5349;SDS011;2697;42.144;24.794;2022-12-10T00:46:21;46.20;;;16.87;;
5349;SDS011;2697;42.144;24.794;2022-12-10T00:48:47;61.87;;;20.30;;
5349;SDS011;2697;42.144;24.794;2022-12-10T00:51:16;52.37;;;17.03;;
5349;SDS011;2697;42.144;24.794;2022-12-10T00:53:44;61.63;;;19.20;;
5349;SDS011;2697;42.144;24.794;2022-12-10T00:56:11;51.70;;;19.60;;
5349;SDS011;2697;42.144;24.794;2022-12-10T00:58:38;57.70;;;17.60;;
5349;SDS011;2697;42.144;24.794;2022-12-10T01:01:08;67.77;;;20.83;;
5349;SDS011;2697;42.144;24.794;2022-12-10T01:03:36;74.53;;;22.17;;
5349;SDS011;2697;42.144;24.794;2022-12-10T01:06:21;76.60;;;22.07;;
5349;SDS011;2697;42.144;24.794;2022-12-10T01:08:47;71.60;;;21.73;;
5349;SDS011;2697;42.144;24.794;2022-12-10T01:11:15;81.87;;;20.53;;
5349;SDS011;2697;42.144;24.794;2022-12-10T01:13:42;71.40;;;21.23;;
5349;SDS011;2697;42.144;24.794;2022-12-10T01:16:09;76.40;;;22.53;;
5349;SDS011;2697;42.144;24.794;2022-12-10T01:18:36;64.07;;;20.33;;
5349;SDS011;2697;42.144;24.794;2022-12-10T01:21:03;86.30;;;23.00;;
5349;SDS011;2697;42.144;24.794;2022-12-10T01:23:34;62.27;;;18.40;;
5349;SDS011;2697;42.144;24.794;2022-12-10T01:26:02;73.40;;;22.13;;
5349;SDS011;2697;42.144;24.794;2022-12-10T01:28:33;82.77;;;20.97;;
5349;SDS011;2697;42.144;24.794;2022-12-10T01:31:05;79.73;;;20.23;;
5349;SDS011;2697;42.144;24.794;2022-12-10T01:33:33;78.40;;;22.53;;
5349;SDS011;2697;42.144;24.794;2022-12-10T01:36:04;66.53;;;21.07;;
5349;SDS011;2697;42.144;24.794;2022-12-10T01:38:31;66.83;;;22.90;;
5349;SDS011;2697;42.144;24.794;2022-12-10T01:40:57;71.10;;;19.90;;
5349;SDS011;2697;42.144;24.794;2022-12-10T01:43:23;81.57;;;22.73;;
5349;SDS011;2697;42.144;24.794;2022-12-10T01:45:48;77.93;;;22.33;;
5349;SDS011;2697;42.144;24.794;2022-12-10T01:48:13;83.03;;;21.50;;
5349;SDS011;2697;42.144;24.794;2022-12-10T01:50:39;96.03;;;23.30;;
5349;SDS011;2697;42.144;24.794;2022-12-10T01:53:05;110.10;;;23.57;;
5349;SDS011;2697;42.144;24.794;2022-12-10T01:55:50;82.90;;;24.63;;
5349;SDS011;2697;42.144;24.794;2022-12-10T01:58:16;78.20;;;24.27;;
5349;SDS011;2697;42.144;24.794;2022-12-10T02:00:45;105.10;;;24.93;;
5349;SDS011;2697;42.144;24.794;2022-12-10T02:03:35;89.13;;;25.03;;
5349;SDS011;2697;42.144;24.794;2022-12-10T02:06:16;98.17;;;26.03;;
5349;SDS011;2697;42.144;24.794;2022-12-10T02:09:02;105.37;;;27.17;;
5349;SDS011;2697;42.144;24.794;2022-12-10T02:14:20;127.40;;;25.40;;
5349;SDS011;2697;42.144;24.794;2022-12-10T02:17:05;105.53;;;27.27;;
5349;SDS011;2697;42.144;24.794;2022-12-10T02:22:29;107.47;;;28.30;;
5349;SDS011;2697;42.144;24.794;2022-12-10T02:25:02;103.27;;;28.77;;
5349;SDS011;2697;42.144;24.794;2022-12-10T02:27:42;141.10;;;31.47;;
5349;SDS011;2697;42.144;24.794;2022-12-10T02:30:14;120.60;;;29.63;;
5349;SDS011;2697;42.144;24.794;2022-12-10T02:32:40;119.47;;;32.13;;
5349;SDS011;2697;42.144;24.794;2022-12-10T02:35:22;121.70;;;31.90;;
5349;SDS011;2697;42.144;24.794;2022-12-10T02:37:55;133.73;;;33.13;;
5349;SDS011;2697;42.144;24.794;2022-12-10T02:40:26;133.03;;;32.70;;
5349;SDS011;2697;42.144;24.794;2022-12-10T02:42:56;150.30;;;33.83;;
5349;SDS011;2697;42.144;24.794;2022-12-10T02:45:22;152.63;;;38.10;;
5349;SDS011;2697;42.144;24.794;2022-12-10T02:47:53;148.13;;;36.23;;
5349;SDS011;2697;42.144;24.794;2022-12-10T02:50:21;121.17;;;33.23;;
5349;SDS011;2697;42.144;24.794;2022-12-10T02:52:48;139.17;;;34.03;;
5349;SDS011;2697;42.144;24.794;2022-12-10T02:55:13;126.30;;;37.17;;
5349;SDS011;2697;42.144;24.794;2022-12-10T03:00:26;129.10;;;33.87;;
5349;SDS011;2697;42.144;24.794;2022-12-10T03:05:42;130.50;;;35.00;;
5349;SDS011;2697;42.144;24.794;2022-12-10T03:08:11;129.47;;;33.47;;
5349;SDS011;2697;42.144;24.794;2022-12-10T03:16:20;95.77;;;28.80;;
5349;SDS011;2697;42.144;24.794;2022-12-10T03:18:49;110.97;;;31.10;;
5349;SDS011;2697;42.144;24.794;2022-12-10T03:21:18;114.73;;;31.10;;
5349;SDS011;2697;42.144;24.794;2022-12-10T03:23:45;104.53;;;31.13;;
5349;SDS011;2697;42.144;24.794;2022-12-10T03:26:12;98.13;;;32.20;;
5349;SDS011;2697;42.144;24.794;2022-12-10T03:28:41;103.90;;;29.63;;
5349;SDS011;2697;42.144;24.794;2022-12-10T03:31:12;89.87;;;27.93;;
5349;SDS011;2697;42.144;24.794;2022-12-10T03:33:39;105.67;;;29.93;;
5349;SDS011;2697;42.144;24.794;2022-12-10T03:36:05;100.93;;;30.13;;
5349;SDS011;2697;42.144;24.794;2022-12-10T03:38:32;81.27;;;27.37;;
5349;SDS011;2697;42.144;24.794;2022-12-10T03:40:59;102.03;;;29.10;;
5349;SDS011;2697;42.144;24.794;2022-12-10T03:43:25;93.67;;;27.83;;
5349;SDS011;2697;42.144;24.794;2022-12-10T03:45:50;100.30;;;28.60;;
5349;SDS011;2697;42.144;24.794;2022-12-10T03:48:15;88.23;;;28.50;;
5349;SDS011;2697;42.144;24.794;2022-12-10T03:50:41;98.70;;;27.10;;
5349;SDS011;2697;42.144;24.794;2022-12-10T03:53:06;99.00;;;29.97;;
5349;SDS011;2697;42.144;24.794;2022-12-10T03:55:31;97.63;;;29.30;;
5349;SDS011;2697;42.144;24.794;2022-12-10T03:57:58;113.23;;;29.07;;
5349;SDS011;2697;42.144;24.794;2022-12-10T04:00:24;103.30;;;26.63;;
5349;SDS011;2697;42.144;24.794;2022-12-10T04:02:49;95.83;;;30.47;;
5349;SDS011;2697;42.144;24.794;2022-12-10T04:05:14;86.30;;;28.20;;
5349;SDS011;2697;42.144;24.794;2022-12-10T04:07:40;120.60;;;30.70;;
5349;SDS011;2697;42.144;24.794;2022-12-10T04:10:06;98.90;;;27.70;;
5349;SDS011;2697;42.144;24.794;2022-12-10T04:12:32;96.13;;;28.90;;
5349;SDS011;2697;42.144;24.794;2022-12-10T04:14:57;77.33;;;26.83;;
5349;SDS011;2697;42.144;24.794;2022-12-10T04:17:41;104.13;;;27.60;;
5349;SDS011;2697;42.144;24.794;2022-12-10T04:20:06;99.23;;;28.67;;
5349;SDS011;2697;42.144;24.794;2022-12-10T04:22:52;96.70;;;29.10;;
5349;SDS011;2697;42.144;24.794;2022-12-10T04:25:36;104.03;;;27.30;;
5349;SDS011;2697;42.144;24.794;2022-12-10T04:28:20;104.57;;;26.23;;
5349;SDS011;2697;42.144;24.794;2022-12-10T04:30:45;104.43;;;28.37;;
5349;SDS011;2697;42.144;24.794;2022-12-10T04:33:10;94.60;;;28.20;;
5349;SDS011;2697;42.144;24.794;2022-12-10T04:35:36;99.67;;;27.60;;
5349;SDS011;2697;42.144;24.794;2022-12-10T04:38:01;103.90;;;28.93;;
5349;SDS011;2697;42.144;24.794;2022-12-10T04:40:27;88.37;;;25.70;;
5349;SDS011;2697;42.144;24.794;2022-12-10T04:42:52;91.27;;;28.20;;
5349;SDS011;2697;42.144;24.794;2022-12-10T04:45:17;92.60;;;28.33;;
5349;SDS011;2697;42.144;24.794;2022-12-10T04:47:43;132.37;;;28.73;;
5349;SDS011;2697;42.144;24.794;2022-12-10T04:50:08;87.80;;;27.80;;
5349;SDS011;2697;42.144;24.794;2022-12-10T04:52:33;91.57;;;27.63;;
5349;SDS011;2697;42.144;24.794;2022-12-10T04:54:59;102.33;;;27.57;;
5349;SDS011;2697;42.144;24.794;2022-12-10T04:57:24;99.80;;;25.97;;
5349;SDS011;2697;42.144;24.794;2022-12-10T04:59:49;98.37;;;27.97;;
5349;SDS011;2697;42.144;24.794;2022-12-10T05:02:15;87.87;;;26.00;;
5349;SDS011;2697;42.144;24.794;2022-12-10T05:04:40;92.10;;;26.47;;
5349;SDS011;2697;42.144;24.794;2022-12-10T05:07:06;98.73;;;26.80;;
5349;SDS011;2697;42.144;24.794;2022-12-10T05:09:31;101.33;;;26.20;;
5349;SDS011;2697;42.144;24.794;2022-12-10T05:11:56;105.63;;;26.20;;
5349;SDS011;2697;42.144;24.794;2022-12-10T05:14:22;88.17;;;25.30;;
5349;SDS011;2697;42.144;24.794;2022-12-10T05:16:48;105.03;;;25.63;;
5349;SDS011;2697;42.144;24.794;2022-12-10T05:19:15;98.57;;;24.83;;
5349;SDS011;2697;42.144;24.794;2022-12-10T05:21:41;92.07;;;25.67;;
5349;SDS011;2697;42.144;24.794;2022-12-10T05:24:24;89.20;;;23.07;;
5349;SDS011;2697;42.144;24.794;2022-12-10T05:26:50;92.03;;;22.90;;
5349;SDS011;2697;42.144;24.794;2022-12-10T05:29:16;78.90;;;23.40;;
5349;SDS011;2697;42.144;24.794;2022-12-10T05:31:42;77.33;;;22.80;;
5349;SDS011;2697;42.144;24.794;2022-12-10T05:34:08;78.87;;;21.43;;
5349;SDS011;2697;42.144;24.794;2022-12-10T05:36:35;86.67;;;24.80;;
5349;SDS011;2697;42.144;24.794;2022-12-10T05:39:00;86.13;;;20.60;;
5349;SDS011;2697;42.144;24.794;2022-12-10T05:41:27;81.10;;;22.00;;
5349;SDS011;2697;42.144;24.794;2022-12-10T05:43:54;67.53;;;22.07;;
5349;SDS011;2697;42.144;24.794;2022-12-10T05:46:23;63.80;;;20.40;;
5349;SDS011;2697;42.144;24.794;2022-12-10T05:48:50;66.73;;;18.97;;
5349;SDS011;2697;42.144;24.794;2022-12-10T05:51:17;57.67;;;18.40;;
5349;SDS011;2697;42.144;24.794;2022-12-10T05:53:45;71.20;;;19.33;;
5349;SDS011;2697;42.144;24.794;2022-12-10T05:56:11;53.27;;;18.83;;
5349;SDS011;2697;42.144;24.794;2022-12-10T05:58:39;60.07;;;18.30;;
5349;SDS011;2697;42.144;24.794;2022-12-10T06:01:08;64.97;;;19.20;;
5349;SDS011;2697;42.144;24.794;2022-12-10T06:03:35;67.70;;;19.73;;
5349;SDS011;2697;42.144;24.794;2022-12-10T06:06:00;65.67;;;16.90;;
5349;SDS011;2697;42.144;24.794;2022-12-10T06:08:26;66.73;;;18.07;;
5349;SDS011;2697;42.144;24.794;2022-12-10T06:10:51;65.03;;;19.47;;
5349;SDS011;2697;42.144;24.794;2022-12-10T06:13:17;59.60;;;16.73;;
5349;SDS011;2697;42.144;24.794;2022-12-10T06:15:42;63.57;;;19.30;;
5349;SDS011;2697;42.144;24.794;2022-12-10T06:18:08;51.30;;;18.50;;
5349;SDS011;2697;42.144;24.794;2022-12-10T06:20:33;57.93;;;18.00;;
5349;SDS011;2697;42.144;24.794;2022-12-10T06:23:02;78.37;;;19.00;;
5349;SDS011;2697;42.144;24.794;2022-12-10T06:25:27;65.63;;;17.33;;
5349;SDS011;2697;42.144;24.794;2022-12-10T06:27:54;72.87;;;21.03;;
5349;SDS011;2697;42.144;24.794;2022-12-10T06:30:19;89.93;;;23.53;;
5349;SDS011;2697;42.144;24.794;2022-12-10T06:32:44;78.50;;;20.97;;
5349;SDS011;2697;42.144;24.794;2022-12-10T06:35:10;69.60;;;22.07;;
5349;SDS011;2697;42.144;24.794;2022-12-10T06:37:36;98.97;;;26.80;;
5349;SDS011;2697;42.144;24.794;2022-12-10T06:40:01;72.10;;;22.20;;
5349;SDS011;2697;42.144;24.794;2022-12-10T06:42:27;80.93;;;21.80;;
5349;SDS011;2697;42.144;24.794;2022-12-10T06:44:53;73.03;;;22.20;;
5349;SDS011;2697;42.144;24.794;2022-12-10T06:47:18;62.50;;;22.27;;
5349;SDS011;2697;42.144;24.794;2022-12-10T06:49:43;85.77;;;25.10;;
5349;SDS011;2697;42.144;24.794;2022-12-10T06:52:09;71.97;;;21.80;;
5349;SDS011;2697;42.144;24.794;2022-12-10T06:54:34;86.70;;;22.40;;
5349;SDS011;2697;42.144;24.794;2022-12-10T06:57:00;80.27;;;23.03;;
5349;SDS011;2697;42.144;24.794;2022-12-10T06:59:25;61.43;;;19.13;;
5349;SDS011;2697;42.144;24.794;2022-12-10T07:01:51;74.07;;;21.43;;
5349;SDS011;2697;42.144;24.794;2022-12-10T07:04:16;80.27;;;23.70;;
5349;SDS011;2697;42.144;24.794;2022-12-10T07:06:41;63.20;;;21.00;;
5349;SDS011;2697;42.144;24.794;2022-12-10T07:09:07;69.83;;;21.27;;
5349;SDS011;2697;42.144;24.794;2022-12-10T07:11:34;84.97;;;25.97;;
5349;SDS011;2697;42.144;24.794;2022-12-10T07:14:00;67.80;;;22.40;;
5349;SDS011;2697;42.144;24.794;2022-12-10T07:16:27;71.23;;;25.27;;
5349;SDS011;2697;42.144;24.794;2022-12-10T07:18:56;86.83;;;27.43;;
5349;SDS011;2697;42.144;24.794;2022-12-10T07:21:40;85.57;;;26.00;;
5349;SDS011;2697;42.144;24.794;2022-12-10T07:24:09;93.23;;;27.43;;
5349;SDS011;2697;42.144;24.794;2022-12-10T07:26:37;70.93;;;24.80;;
5349;SDS011;2697;42.144;24.794;2022-12-10T07:29:04;95.97;;;26.90;;
5349;SDS011;2697;42.144;24.794;2022-12-10T07:31:31;76.10;;;23.10;;
5349;SDS011;2697;42.144;24.794;2022-12-10T07:33:57;81.80;;;25.03;;
5349;SDS011;2697;42.144;24.794;2022-12-10T07:36:23;76.27;;;24.33;;
5349;SDS011;2697;42.144;24.794;2022-12-10T07:38:50;62.47;;;22.50;;
5349;SDS011;2697;42.144;24.794;2022-12-10T07:41:16;79.50;;;23.87;;
5349;SDS011;2697;42.144;24.794;2022-12-10T07:43:42;71.23;;;22.43;;
5349;SDS011;2697;42.144;24.794;2022-12-10T07:48:45;69.57;;;25.13;;
5349;SDS011;2697;42.144;24.794;2022-12-10T07:51:12;77.33;;;26.60;;
5349;SDS011;2697;42.144;24.794;2022-12-10T07:53:38;74.57;;;26.23;;
5349;SDS011;2697;42.144;24.794;2022-12-10T07:56:04;105.50;;;30.53;;
5349;SDS011;2697;42.144;24.794;2022-12-10T07:58:30;83.10;;;27.10;;
5349;SDS011;2697;42.144;24.794;2022-12-10T08:00:55;81.67;;;26.43;;
5349;SDS011;2697;42.144;24.794;2022-12-10T08:03:21;71.20;;;26.90;;
5349;SDS011;2697;42.144;24.794;2022-12-10T08:05:46;71.23;;;24.93;;
5349;SDS011;2697;42.144;24.794;2022-12-10T08:08:12;80.37;;;24.90;;
5349;SDS011;2697;42.144;24.794;2022-12-10T08:10:37;74.43;;;24.30;;
5349;SDS011;2697;42.144;24.794;2022-12-10T08:13:04;82.73;;;24.67;;
5349;SDS011;2697;42.144;24.794;2022-12-10T08:15:30;72.77;;;24.43;;
5349;SDS011;2697;42.144;24.794;2022-12-10T08:17:56;75.20;;;24.23;;
5349;SDS011;2697;42.144;24.794;2022-12-10T08:20:22;67.87;;;24.13;;
5349;SDS011;2697;42.144;24.794;2022-12-10T08:22:49;74.90;;;26.87;;
5349;SDS011;2697;42.144;24.794;2022-12-10T08:25:15;71.03;;;24.57;;
5349;SDS011;2697;42.144;24.794;2022-12-10T08:27:40;62.00;;;23.33;;
5349;SDS011;2697;42.144;24.794;2022-12-10T08:30:06;60.17;;;23.07;;
5349;SDS011;2697;42.144;24.794;2022-12-10T08:32:32;67.10;;;24.10;;
5349;SDS011;2697;42.144;24.794;2022-12-10T08:34:57;61.00;;;24.37;;
5349;SDS011;2697;42.144;24.794;2022-12-10T08:37:23;78.60;;;24.70;;
5349;SDS011;2697;42.144;24.794;2022-12-10T08:39:48;66.57;;;24.43;;
5349;SDS011;2697;42.144;24.794;2022-12-10T08:42:13;62.80;;;24.60;;
5349;SDS011;2697;42.144;24.794;2022-12-10T08:44:39;70.53;;;26.00;;
5349;SDS011;2697;42.144;24.794;2022-12-10T08:47:05;73.73;;;26.27;;
5349;SDS011;2697;42.144;24.794;2022-12-10T08:49:30;79.63;;;27.87;;
5349;SDS011;2697;42.144;24.794;2022-12-10T08:51:56;85.80;;;26.67;;
5349;SDS011;2697;42.144;24.794;2022-12-10T08:54:21;78.23;;;24.20;;
5349;SDS011;2697;42.144;24.794;2022-12-10T08:56:46;69.93;;;25.73;;
5349;SDS011;2697;42.144;24.794;2022-12-10T08:59:12;70.93;;;25.00;;
5349;SDS011;2697;42.144;24.794;2022-12-10T09:01:38;67.20;;;25.80;;
5349;SDS011;2697;42.144;24.794;2022-12-10T09:04:03;86.07;;;24.70;;
5349;SDS011;2697;42.144;24.794;2022-12-10T09:06:29;61.90;;;23.07;;
5349;SDS011;2697;42.144;24.794;2022-12-10T09:08:55;79.00;;;25.23;;
5349;SDS011;2697;42.144;24.794;2022-12-10T09:13:51;64.97;;;22.67;;
5349;SDS011;2697;42.144;24.794;2022-12-10T09:16:20;83.70;;;25.13;;
5349;SDS011;2697;42.144;24.794;2022-12-10T09:18:46;70.00;;;24.27;;
5349;SDS011;2697;42.144;24.794;2022-12-10T09:21:14;57.93;;;23.10;;
5349;SDS011;2697;42.144;24.794;2022-12-10T09:23:42;60.83;;;24.23;;
5349;SDS011;2697;42.144;24.794;2022-12-10T09:26:12;69.57;;;25.23;;
5349;SDS011;2697;42.144;24.794;2022-12-10T09:28:39;73.13;;;25.10;;
5349;SDS011;2697;42.144;24.794;2022-12-10T09:31:05;45.00;;;20.13;;
5349;SDS011;2697;42.144;24.794;2022-12-10T09:33:31;56.53;;;21.20;;
5349;SDS011;2697;42.144;24.794;2022-12-10T09:35:57;51.87;;;21.43;;
5349;SDS011;2697;42.144;24.794;2022-12-10T09:38:23;55.83;;;23.27;;
5349;SDS011;2697;42.144;24.794;2022-12-10T09:41:00;53.80;;;21.67;;
5349;SDS011;2697;42.144;24.794;2022-12-10T09:43:47;55.10;;;20.30;;
5349;SDS011;2697;42.144;24.794;2022-12-10T09:46:23;54.43;;;20.03;;
5349;SDS011;2697;42.144;24.794;2022-12-10T09:51:58;54.73;;;22.07;;
5349;SDS011;2697;42.144;24.794;2022-12-10T09:54:28;53.53;;;20.33;;
5349;SDS011;2697;42.144;24.794;2022-12-10T09:56:56;55.43;;;20.63;;
5349;SDS011;2697;42.144;24.794;2022-12-10T09:59:24;52.17;;;21.00;;
5349;SDS011;2697;42.144;24.794;2022-12-10T10:02:10;53.27;;;21.37;;
5349;SDS011;2697;42.144;24.794;2022-12-10T10:04:44;69.63;;;22.53;;
5349;SDS011;2697;42.144;24.794;2022-12-10T10:07:26;56.83;;;25.33;;
5349;SDS011;2697;42.144;24.794;2022-12-10T10:09:59;57.07;;;23.37;;
5349;SDS011;2697;42.144;24.794;2022-12-10T10:12:28;51.20;;;24.53;;
5349;SDS011;2697;42.144;24.794;2022-12-10T10:14:55;53.57;;;23.70;;
5349;SDS011;2697;42.144;24.794;2022-12-10T10:17:38;58.53;;;21.70;;
5349;SDS011;2697;42.144;24.794;2022-12-10T10:20:04;59.40;;;21.10;;
5349;SDS011;2697;42.144;24.794;2022-12-10T10:22:30;56.93;;;22.47;;
5349;SDS011;2697;42.144;24.794;2022-12-10T10:24:56;59.37;;;22.77;;
5349;SDS011;2697;42.144;24.794;2022-12-10T10:27:23;56.97;;;23.50;;
5349;SDS011;2697;42.144;24.794;2022-12-10T10:29:54;66.20;;;26.37;;
5349;SDS011;2697;42.144;24.794;2022-12-10T10:32:22;53.30;;;24.10;;
5349;SDS011;2697;42.144;24.794;2022-12-10T10:34:54;66.53;;;23.70;;
5349;SDS011;2697;42.144;24.794;2022-12-10T10:37:22;43.73;;;18.37;;
5349;SDS011;2697;42.144;24.794;2022-12-10T10:39:56;50.57;;;18.73;;
5349;SDS011;2697;42.144;24.794;2022-12-10T10:42:43;44.50;;;19.33;;
5349;SDS011;2697;42.144;24.794;2022-12-10T10:48:16;54.10;;;19.37;;
5349;SDS011;2697;42.144;24.794;2022-12-10T10:50:48;62.33;;;20.97;;
5349;SDS011;2697;42.144;24.794;2022-12-10T10:56:20;55.23;;;23.00;;
5349;SDS011;2697;42.144;24.794;2022-12-10T10:59:04;57.50;;;23.07;;
5349;SDS011;2697;42.144;24.794;2022-12-10T11:04:17;68.27;;;26.77;;
5349;SDS011;2697;42.144;24.794;2022-12-10T11:06:49;66.30;;;26.13;;
5349;SDS011;2697;42.144;24.794;2022-12-10T11:09:24;65.97;;;24.73;;
5349;SDS011;2697;42.144;24.794;2022-12-10T11:12:06;63.90;;;27.10;;
5349;SDS011;2697;42.144;24.794;2022-12-10T11:14:46;65.33;;;25.40;;
5349;SDS011;2697;42.144;24.794;2022-12-10T11:22:31;69.70;;;26.43;;
5349;SDS011;2697;42.144;24.794;2022-12-10T11:24:58;68.33;;;26.97;;
5349;SDS011;2697;42.144;24.794;2022-12-10T11:27:40;78.43;;;30.70;;
5349;SDS011;2697;42.144;24.794;2022-12-10T11:30:14;67.13;;;28.07;;
5349;SDS011;2697;42.144;24.794;2022-12-10T11:40:38;72.97;;;27.30;;
5349;SDS011;2697;42.144;24.794;2022-12-10T11:43:20;73.17;;;26.73;;
5349;SDS011;2697;42.144;24.794;2022-12-10T11:49:47;68.40;;;23.00;;
5349;SDS011;2697;42.144;24.794;2022-12-10T11:52:32;55.60;;;23.10;;
5349;SDS011;2697;42.144;24.794;2022-12-10T11:55:12;68.40;;;22.00;;
5349;SDS011;2697;42.144;24.794;2022-12-10T12:00:49;45.83;;;19.77;;
5349;SDS011;2697;42.144;24.794;2022-12-10T12:03:37;57.17;;;22.57;;
5349;SDS011;2697;42.144;24.794;2022-12-10T12:09:19;67.20;;;22.60;;
5349;SDS011;2697;42.144;24.794;2022-12-10T12:12:00;54.20;;;24.17;;
5349;SDS011;2697;42.144;24.794;2022-12-10T12:14:43;51.40;;;23.80;;
5349;SDS011;2697;42.144;24.794;2022-12-10T12:19:46;54.23;;;22.77;;
5349;SDS011;2697;42.144;24.794;2022-12-10T12:22:23;58.07;;;23.13;;
5349;SDS011;2697;42.144;24.794;2022-12-10T12:24:53;56.73;;;24.30;;
5349;SDS011;2697;42.144;24.794;2022-12-10T12:27:33;51.53;;;22.67;;
5349;SDS011;2697;42.144;24.794;2022-12-10T12:35:12;54.37;;;20.40;;
5349;SDS011;2697;42.144;24.794;2022-12-10T12:37:46;40.03;;;19.83;;
5349;SDS011;2697;42.144;24.794;2022-12-10T12:46:15;66.57;;;22.50;;
5349;SDS011;2697;42.144;24.794;2022-12-10T12:48:58;48.20;;;22.67;;
5349;SDS011;2697;42.144;24.794;2022-12-10T12:51:32;66.63;;;25.87;;
5349;SDS011;2697;42.144;24.794;2022-12-10T12:54:12;65.10;;;24.23;;
5349;SDS011;2697;42.144;24.794;2022-12-10T13:02:15;67.70;;;24.67;;
5349;SDS011;2697;42.144;24.794;2022-12-10T13:04:53;71.17;;;25.77;;
5349;SDS011;2697;42.144;24.794;2022-12-10T13:09:44;66.73;;;27.27;;
5349;SDS011;2697;42.144;24.794;2022-12-10T13:12:29;79.53;;;25.97;;
5349;SDS011;2697;42.144;24.794;2022-12-10T13:17:27;59.67;;;25.20;;
5349;SDS011;2697;42.144;24.794;2022-12-10T13:23:02;68.63;;;24.20;;
5349;SDS011;2697;42.144;24.794;2022-12-10T13:44:56;62.83;;;27.13;;
5349;SDS011;2697;42.144;24.794;2022-12-10T13:50:05;72.60;;;27.50;;
5349;SDS011;2697;42.144;24.794;2022-12-10T13:58:25;65.57;;;28.87;;
5349;SDS011;2697;42.144;24.794;2022-12-10T14:01:07;72.77;;;29.77;;
5349;SDS011;2697;42.144;24.794;2022-12-10T14:06:35;66.33;;;28.80;;
5349;SDS011;2697;42.144;24.794;2022-12-10T14:09:05;78.37;;;33.23;;
5349;SDS011;2697;42.144;24.794;2022-12-10T14:11:38;80.57;;;31.93;;
5349;SDS011;2697;42.144;24.794;2022-12-10T14:14:10;62.63;;;29.00;;
5349;SDS011;2697;42.144;24.794;2022-12-10T14:16:41;69.93;;;29.10;;
5349;SDS011;2697;42.144;24.794;2022-12-10T14:19:07;76.50;;;31.40;;
5349;SDS011;2697;42.144;24.794;2022-12-10T14:21:40;87.60;;;32.40;;
5349;SDS011;2697;42.144;24.794;2022-12-10T14:26:58;89.23;;;33.50;;
5349;SDS011;2697;42.144;24.794;2022-12-10T14:29:26;78.37;;;33.23;;
5349;SDS011;2697;42.144;24.794;2022-12-10T14:31:52;78.60;;;30.23;;
5349;SDS011;2697;42.144;24.794;2022-12-10T14:34:18;68.73;;;29.47;;
5349;SDS011;2697;42.144;24.794;2022-12-10T14:36:50;72.27;;;29.80;;
5349;SDS011;2697;42.144;24.794;2022-12-10T14:39:21;69.80;;;30.90;;
5349;SDS011;2697;42.144;24.794;2022-12-10T14:41:59;77.93;;;29.57;;
5349;SDS011;2697;42.144;24.794;2022-12-10T14:44:28;71.07;;;30.10;;
5349;SDS011;2697;42.144;24.794;2022-12-10T14:47:13;74.67;;;31.23;;
5349;SDS011;2697;42.144;24.794;2022-12-10T14:49:44;61.83;;;28.03;;
5349;SDS011;2697;42.144;24.794;2022-12-10T14:52:12;77.73;;;29.83;;
5349;SDS011;2697;42.144;24.794;2022-12-10T14:54:40;64.97;;;29.53;;
5349;SDS011;2697;42.144;24.794;2022-12-10T14:57:07;76.07;;;31.10;;
5349;SDS011;2697;42.144;24.794;2022-12-10T14:59:39;79.97;;;31.00;;
5349;SDS011;2697;42.144;24.794;2022-12-10T15:02:12;75.60;;;31.50;;
5349;SDS011;2697;42.144;24.794;2022-12-10T15:04:47;69.33;;;30.33;;
5349;SDS011;2697;42.144;24.794;2022-12-10T15:07:14;74.90;;;29.93;;
5349;SDS011;2697;42.144;24.794;2022-12-10T15:09:43;81.87;;;30.47;;
5349;SDS011;2697;42.144;24.794;2022-12-10T15:12:32;69.70;;;29.50;;
5349;SDS011;2697;42.144;24.794;2022-12-10T15:15:11;65.97;;;28.40;;
5349;SDS011;2697;42.144;24.794;2022-12-10T15:17:39;61.87;;;28.07;;
5349;SDS011;2697;42.144;24.794;2022-12-10T15:20:18;67.77;;;28.33;;
5349;SDS011;2697;42.144;24.794;2022-12-10T15:22:49;69.87;;;28.60;;
5349;SDS011;2697;42.144;24.794;2022-12-10T15:25:23;64.63;;;26.30;;
5349;SDS011;2697;42.144;24.794;2022-12-10T15:28:20;63.07;;;27.13;;
5349;SDS011;2697;42.144;24.794;2022-12-10T15:30:47;78.17;;;32.17;;
5349;SDS011;2697;42.144;24.794;2022-12-10T15:33:38;88.70;;;28.83;;
5349;SDS011;2697;42.144;24.794;2022-12-10T15:36:04;68.53;;;28.87;;
5349;SDS011;2697;42.144;24.794;2022-12-10T15:38:30;87.23;;;30.67;;
5349;SDS011;2697;42.144;24.794;2022-12-10T15:40:56;78.50;;;32.30;;
5349;SDS011;2697;42.144;24.794;2022-12-10T15:45:57;72.43;;;33.50;;
5349;SDS011;2697;42.144;24.794;2022-12-10T15:48:23;77.87;;;31.97;;
5349;SDS011;2697;42.144;24.794;2022-12-10T15:50:51;116.33;;;43.93;;
5349;SDS011;2697;42.144;24.794;2022-12-10T15:53:21;133.70;;;55.30;;
5349;SDS011;2697;42.144;24.794;2022-12-10T15:55:54;120.17;;;47.43;;
5349;SDS011;2697;42.144;24.794;2022-12-10T15:58:19;111.10;;;41.50;;
5349;SDS011;2697;42.144;24.794;2022-12-10T16:00:45;101.67;;;36.10;;
5349;SDS011;2697;42.144;24.794;2022-12-10T16:03:13;104.10;;;37.20;;
5349;SDS011;2697;42.144;24.794;2022-12-10T16:05:41;96.37;;;34.83;;
5349;SDS011;2697;42.144;24.794;2022-12-10T16:10:43;109.53;;;38.70;;
5349;SDS011;2697;42.144;24.794;2022-12-10T16:13:20;86.63;;;34.80;;
5349;SDS011;2697;42.144;24.794;2022-12-10T16:15:50;97.67;;;36.43;;
5349;SDS011;2697;42.144;24.794;2022-12-10T16:18:18;89.10;;;34.07;;
5349;SDS011;2697;42.144;24.794;2022-12-10T16:20:44;92.73;;;34.47;;
5349;SDS011;2697;42.144;24.794;2022-12-10T16:23:10;81.53;;;34.37;;
5349;SDS011;2697;42.144;24.794;2022-12-10T16:25:35;89.47;;;35.30;;
5349;SDS011;2697;42.144;24.794;2022-12-10T16:28:03;83.23;;;33.50;;
5349;SDS011;2697;42.144;24.794;2022-12-10T16:33:01;96.33;;;35.83;;
5349;SDS011;2697;42.144;24.794;2022-12-10T16:35:28;110.23;;;43.67;;
5349;SDS011;2697;42.144;24.794;2022-12-10T16:37:54;82.03;;;33.93;;
5349;SDS011;2697;42.144;24.794;2022-12-10T16:40:21;111.60;;;34.30;;
5349;SDS011;2697;42.144;24.794;2022-12-10T16:42:47;109.60;;;39.27;;
5349;SDS011;2697;42.144;24.794;2022-12-10T16:48:05;131.57;;;50.60;;
5349;SDS011;2697;42.144;24.794;2022-12-10T16:50:31;88.03;;;39.87;;
5349;SDS011;2697;42.144;24.794;2022-12-10T16:52:57;96.57;;;37.40;;
5349;SDS011;2697;42.144;24.794;2022-12-10T16:55:26;117.03;;;40.20;;